Time;durP1;ratioP1;P1;durP2;ratioP2;P2;SDS_P1;SDS_P2;PMS_P1;PMS_P2;Temp;Humidity;BMP_temperature;BMP_pressure;BME280_temperature;BME280_humidity;BME280_pressure;Samples;Min_cycle;Max_cycle;Signal;HPM_P1;HPM_P2
2022/04/30 00:02:00;;;;;;;10.07;6.50;;;;;;;;;;4968691;28;20194;-52
2022/04/30 00:04:26;;;;;;;7.13;6.40;;;;;;;;;;4970451;28;20183;-52
2022/04/30 00:06:52;;;;;;;9.93;6.33;;;;;;;;;;4969898;28;20260;-52
2022/04/30 00:09:18;;;;;;;8.97;6.60;;;;;;;;;;4967998;28;20195;-52
2022/04/30 00:11:44;;;;;;;6.87;6.13;;;;;;;;;;4966219;28;20198;-52
2022/04/30 00:14:10;;;;;;;8.77;7.00;;;;;;;;;;4965664;28;20205;-52
2022/04/30 00:16:38;;;;;;;6.77;6.00;;;;;;;;;;4961276;28;20222;-52
2022/04/30 00:19:06;;;;;;;6.80;6.10;;;;;;;;;;4968165;28;20711;-52
2022/04/30 00:21:32;;;;;;;7.20;6.43;;;;;;;;;;4964549;28;20190;-52
2022/04/30 00:23:58;;;;;;;6.57;5.87;;;;;;;;;;4970956;28;20201;-52
2022/04/30 00:26:24;;;;;;;9.37;6.90;;;;;;;;;;4964769;28;20657;-52
2022/04/30 00:28:52;;;;;;;7.87;6.53;;;;;;;;;;4966849;28;20584;-52
2022/04/30 00:31:18;;;;;;;7.83;6.03;;;;;;;;;;4964422;28;20190;-52
2022/04/30 00:33:48;;;;;;;7.30;6.23;;;;;;;;;;4967361;28;20817;-52
2022/04/30 00:36:14;;;;;;;6.93;6.20;;;;;;;;;;4971175;28;20222;-52
2022/04/30 00:38:40;;;;;;;7.60;6.80;;;;;;;;;;4971455;28;20540;-52
2022/04/30 00:41:10;;;;;;;9.03;6.70;;;;;;;;;;4967160;28;20798;-52
2022/04/30 00:43:45;;;;;;;6.73;6.13;;;;;;;;;;4958854;28;20187;-51
2022/04/30 00:46:14;;;;;;;7.40;6.23;;;;;;;;;;4966709;28;20208;-52
2022/04/30 00:48:40;;;;;;;7.83;6.93;;;;;;;;;;4967687;28;20195;-52
2022/04/30 00:51:10;;;;;;;8.80;6.13;;;;;;;;;;4966011;28;20281;-52
2022/04/30 00:53:37;;;;;;;10.73;6.60;;;;;;;;;;4967823;28;20179;-51
2022/04/30 00:56:03;;;;;;;7.73;6.20;;;;;;;;;;4967134;28;21206;-53
2022/04/30 00:58:29;;;;;;;8.27;6.77;;;;;;;;;;4969227;28;20301;-52
2022/04/30 01:00:55;;;;;;;6.97;6.27;;;;;;;;;;4962834;28;20196;-52
2022/04/30 01:03:22;;;;;;;10.43;6.73;;;;;;;;;;4969148;28;20304;-52
2022/04/30 01:05:49;;;;;;;7.67;6.20;;;;;;;;;;4964853;28;20708;-52
2022/04/30 01:08:15;;;;;;;6.90;5.80;;;;;;;;;;4966322;28;20856;-51
2022/04/30 01:10:41;;;;;;;7.40;6.57;;;;;;;;;;4964281;28;20198;-52
2022/04/30 01:13:08;;;;;;;8.67;7.10;;;;;;;;;;4969586;28;20191;-52
2022/04/30 01:15:33;;;;;;;9.83;6.73;;;;;;;;;;4965416;28;20211;-52
2022/04/30 01:18:00;;;;;;;8.73;6.50;;;;;;;;;;4966758;28;20732;-52
2022/04/30 01:20:26;;;;;;;6.87;6.07;;;;;;;;;;4967943;28;20199;-52
2022/04/30 01:23:02;;;;;;;8.57;5.97;;;;;;;;;;4966513;28;20184;-52
2022/04/30 01:25:30;;;;;;;7.97;6.73;;;;;;;;;;4969368;28;20221;-52
2022/04/30 01:27:56;;;;;;;8.93;6.70;;;;;;;;;;4968255;28;20209;-52
2022/04/30 01:30:23;;;;;;;8.77;7.10;;;;;;;;;;4958223;28;20198;-51
2022/04/30 01:38:20;;;;;;;7.43;6.63;;;;;;;;;;4967797;28;20269;-52
2022/04/30 01:40:46;;;;;;;8.90;6.73;;;;;;;;;;4964057;28;20191;-52
2022/04/30 01:43:12;;;;;;;9.23;6.83;;;;;;;;;;4968223;28;20670;-51
2022/04/30 01:45:38;;;;;;;6.80;6.10;;;;;;;;;;4965584;28;20660;-52
2022/04/30 01:48:04;;;;;;;12.77;7.10;;;;;;;;;;4964379;28;20197;-52
2022/04/30 01:50:32;;;;;;;8.07;6.77;;;;;;;;;;4965979;28;20209;-52
2022/04/30 01:52:58;;;;;;;8.67;6.80;;;;;;;;;;4962775;28;20757;-52
2022/04/30 01:55:24;;;;;;;8.27;6.67;;;;;;;;;;4965705;28;20644;-52
2022/04/30 01:57:50;;;;;;;8.80;7.00;;;;;;;;;;4964770;28;20567;-52
2022/04/30 02:00:20;;;;;;;11.00;7.07;;;;;;;;;;4965257;28;20759;-52
2022/04/30 02:02:46;;;;;;;7.87;6.57;;;;;;;;;;4970485;28;20175;-52
2022/04/30 02:05:13;;;;;;;8.13;6.07;;;;;;;;;;4964560;28;20179;-52
2022/04/30 02:08:00;;;;;;;7.87;6.87;;;;;;;;;;4960688;28;20308;-51
2022/04/30 02:10:26;;;;;;;9.83;6.63;;;;;;;;;;4962929;28;20194;-52
2022/04/30 02:12:52;;;;;;;8.67;6.43;;;;;;;;;;4965860;28;20859;-52
2022/04/30 02:15:19;;;;;;;6.90;6.20;;;;;;;;;;4960295;28;20629;-52
2022/04/30 02:17:46;;;;;;;10.07;6.70;;;;;;;;;;4965293;28;20244;-51
2022/04/30 02:20:29;;;;;;;9.33;6.77;;;;;;;;;;4963482;28;20193;-52
2022/04/30 02:23:00;;;;;;;9.00;6.80;;;;;;;;;;4962890;28;20732;-52
2022/04/30 02:25:26;;;;;;;9.57;6.50;;;;;;;;;;4966175;28;20802;-52
2022/04/30 02:27:54;;;;;;;9.37;6.20;;;;;;;;;;4966615;28;20190;-53
2022/04/30 02:30:21;;;;;;;8.17;6.00;;;;;;;;;;4964873;28;20189;-52
2022/04/30 02:32:48;;;;;;;8.23;5.90;;;;;;;;;;4969030;28;20197;-52
2022/04/30 02:35:15;;;;;;;8.30;6.17;;;;;;;;;;4955223;28;21046;-52
2022/04/30 02:37:44;;;;;;;7.73;6.60;;;;;;;;;;4956397;28;20191;-51
2022/04/30 02:40:11;;;;;;;7.93;6.77;;;;;;;;;;4956547;28;20202;-52
2022/04/30 02:42:38;;;;;;;7.73;6.17;;;;;;;;;;4969474;28;20187;-52
2022/04/30 02:45:04;;;;;;;7.53;6.07;;;;;;;;;;4960734;28;20180;-51
2022/04/30 02:47:30;;;;;;;9.53;6.07;;;;;;;;;;4961855;28;20381;-51
2022/04/30 02:49:56;;;;;;;7.10;5.83;;;;;;;;;;4964725;28;20610;-52
2022/04/30 02:52:22;;;;;;;7.50;6.20;;;;;;;;;;4960987;28;20714;-52
2022/04/30 02:54:48;;;;;;;7.97;5.70;;;;;;;;;;4961539;28;20208;-51
2022/04/30 02:57:14;;;;;;;6.50;5.40;;;;;;;;;;4959377;28;20190;-52
2022/04/30 02:59:55;;;;;;;7.20;5.73;;;;;;;;;;4962492;28;20194;-52
2022/04/30 03:02:24;;;;;;;9.77;6.10;;;;;;;;;;4963228;28;20182;-52
2022/04/30 03:04:51;;;;;;;7.97;5.73;;;;;;;;;;4962045;28;21714;-52
2022/04/30 03:07:22;;;;;;;7.97;5.90;;;;;;;;;;4964226;28;20309;-51
2022/04/30 03:09:48;;;;;;;7.07;5.90;;;;;;;;;;4965516;28;20660;-51
2022/04/30 03:12:15;;;;;;;8.23;5.30;;;;;;;;;;4956930;28;20191;-51
2022/04/30 03:14:41;;;;;;;6.73;6.00;;;;;;;;;;4960974;28;20190;-52
2022/04/30 03:22:36;;;;;;;6.53;5.43;;;;;;;;;;4970889;28;20222;-51
2022/04/30 03:25:02;;;;;;;8.70;5.77;;;;;;;;;;4968623;28;20190;-51
2022/04/30 03:27:28;;;;;;;6.97;5.50;;;;;;;;;;4968087;28;20202;-51
2022/04/30 03:29:55;;;;;;;6.47;5.87;;;;;;;;;;4965327;28;20204;-51
2022/04/30 03:32:24;;;;;;;7.20;5.10;;;;;;;;;;4970651;28;20217;-51
2022/04/30 03:34:50;;;;;;;7.37;5.53;;;;;;;;;;4966745;28;20751;-52
2022/04/30 03:37:16;;;;;;;7.70;5.30;;;;;;;;;;4965316;28;20186;-52
2022/04/30 03:39:42;;;;;;;7.97;5.77;;;;;;;;;;4962701;28;20205;-52
2022/04/30 03:42:08;;;;;;;6.47;5.37;;;;;;;;;;4963345;28;20214;-52
2022/04/30 03:44:34;;;;;;;8.43;5.10;;;;;;;;;;4971095;28;20194;-52
2022/04/30 03:47:03;;;;;;;6.50;5.60;;;;;;;;;;4962864;28;20222;-52
2022/04/30 03:49:29;;;;;;;7.80;4.83;;;;;;;;;;4966712;28;20297;-51
2022/04/30 03:51:55;;;;;;;7.50;5.90;;;;;;;;;;4969681;28;20241;-52
2022/04/30 03:54:22;;;;;;;8.30;5.27;;;;;;;;;;4964623;28;20197;-52
2022/04/30 03:56:48;;;;;;;5.53;5.03;;;;;;;;;;4960005;28;20233;-51
2022/04/30 03:59:13;;;;;;;7.13;5.17;;;;;;;;;;4970489;28;20191;-51
2022/04/30 04:01:40;;;;;;;8.53;5.67;;;;;;;;;;4964719;28;20307;-51
2022/04/30 04:04:06;;;;;;;7.57;5.60;;;;;;;;;;4967970;28;20191;-52
2022/04/30 04:06:32;;;;;;;5.77;5.17;;;;;;;;;;4967932;28;20276;-51
2022/04/30 04:08:59;;;;;;;7.07;5.30;;;;;;;;;;4969442;28;20693;-51
2022/04/30 04:11:26;;;;;;;7.77;5.07;;;;;;;;;;4969970;28;20183;-52
2022/04/30 04:19:23;;;;;;;9.00;5.60;;;;;;;;;;4965936;28;20229;-52
2022/04/30 04:21:50;;;;;;;6.93;5.27;;;;;;;;;;4956637;28;20205;-51
2022/04/30 04:27:01;;;;;;;8.53;5.87;;;;;;;;;;4965504;28;20204;-51
2022/04/30 04:29:27;;;;;;;9.07;5.97;;;;;;;;;;4957916;28;20190;-51
2022/04/30 04:31:53;;;;;;;7.73;5.70;;;;;;;;;;4960466;28;20187;-51
2022/04/30 04:34:19;;;;;;;8.43;6.20;;;;;;;;;;4964320;28;20195;-52
2022/04/30 04:36:45;;;;;;;6.87;5.73;;;;;;;;;;4957374;28;20206;-52
2022/04/30 04:39:15;;;;;;;7.13;5.60;;;;;;;;;;4964249;28;20217;-52
2022/04/30 04:41:42;;;;;;;7.87;5.77;;;;;;;;;;4960896;28;20245;-52
2022/04/30 04:44:08;;;;;;;10.10;5.67;;;;;;;;;;4961966;28;20915;-52
2022/04/30 04:46:34;;;;;;;6.77;5.53;;;;;;;;;;4962641;28;20220;-52
2022/04/30 04:49:00;;;;;;;9.03;5.93;;;;;;;;;;4972448;28;20194;-51
2022/04/30 04:51:27;;;;;;;7.27;6.03;;;;;;;;;;4960568;28;20194;-51
2022/04/30 04:53:53;;;;;;;7.53;5.70;;;;;;;;;;4945902;28;20838;-52
2022/04/30 04:56:18;;;;;;;8.50;6.10;;;;;;;;;;4949792;28;20213;-52
2022/04/30 04:58:44;;;;;;;8.73;6.07;;;;;;;;;;4963224;28;20193;-51
2022/04/30 05:01:10;;;;;;;10.63;6.10;;;;;;;;;;4959896;28;20270;-52
2022/04/30 05:03:36;;;;;;;8.97;5.77;;;;;;;;;;4970866;28;20214;-51
2022/04/30 05:06:02;;;;;;;9.23;5.67;;;;;;;;;;4964646;28;20215;-51
2022/04/30 05:08:28;;;;;;;7.53;5.77;;;;;;;;;;4963968;28;20241;-52
2022/04/30 05:10:54;;;;;;;7.40;5.87;;;;;;;;;;4958466;28;20660;-51
2022/04/30 05:13:20;;;;;;;9.50;6.10;;;;;;;;;;4955444;28;20593;-52
2022/04/30 05:15:46;;;;;;;8.37;5.90;;;;;;;;;;4959646;28;20282;-51
2022/04/30 05:18:12;;;;;;;9.37;5.50;;;;;;;;;;4963162;28;20297;-51
2022/04/30 05:20:39;;;;;;;7.50;5.33;;;;;;;;;;4954689;28;20219;-51
2022/04/30 05:23:05;;;;;;;9.17;6.37;;;;;;;;;;4952430;28;20183;-50
2022/04/30 05:25:31;;;;;;;12.17;6.87;;;;;;;;;;4970613;28;20195;-49
2022/04/30 05:27:57;;;;;;;10.97;7.40;;;;;;;;;;4966484;28;20198;-49
2022/04/30 05:30:24;;;;;;;10.50;7.23;;;;;;;;;;4962804;28;20198;-50
2022/04/30 05:32:50;;;;;;;11.23;7.57;;;;;;;;;;4971323;28;20195;-50
2022/04/30 05:35:16;;;;;;;10.60;7.47;;;;;;;;;;4957717;28;20301;-50
2022/04/30 05:37:42;;;;;;;10.87;7.23;;;;;;;;;;4966663;28;20200;-50
2022/04/30 05:40:08;;;;;;;10.47;7.57;;;;;;;;;;4965628;28;20187;-49
2022/04/30 05:42:34;;;;;;;10.43;7.07;;;;;;;;;;4965305;28;20194;-49
2022/04/30 05:45:00;;;;;;;11.73;7.93;;;;;;;;;;4957699;28;20529;-54
2022/04/30 05:47:27;;;;;;;9.10;7.07;;;;;;;;;;4957399;28;20540;-49
2022/04/30 05:49:52;;;;;;;9.43;6.70;;;;;;;;;;4963295;28;20191;-50
2022/04/30 05:52:19;;;;;;;13.73;7.83;;;;;;;;;;4957221;28;20463;-52
2022/04/30 05:54:46;;;;;;;12.73;7.60;;;;;;;;;;4961110;28;20545;-51
2022/04/30 05:57:11;;;;;;;12.50;7.70;;;;;;;;;;4964473;28;20640;-52
2022/04/30 05:59:37;;;;;;;12.50;8.07;;;;;;;;;;4966499;28;20201;-49
2022/04/30 06:02:03;;;;;;;13.27;8.00;;;;;;;;;;4962983;28;20186;-50
2022/04/30 06:04:29;;;;;;;10.87;7.40;;;;;;;;;;4959140;28;20190;-49
2022/04/30 06:06:55;;;;;;;12.83;7.77;;;;;;;;;;4955786;28;20242;-49
2022/04/30 06:09:21;;;;;;;10.03;7.23;;;;;;;;;;4954397;28;20182;-49
2022/04/30 06:11:47;;;;;;;12.23;7.80;;;;;;;;;;4965169;28;20195;-49
2022/04/30 06:14:13;;;;;;;10.13;6.77;;;;;;;;;;4960044;28;20547;-49
2022/04/30 06:16:39;;;;;;;11.43;6.80;;;;;;;;;;4954085;28;20218;-49
2022/04/30 06:19:05;;;;;;;9.53;6.73;;;;;;;;;;4958884;28;20564;-49
2022/04/30 06:21:31;;;;;;;10.10;7.00;;;;;;;;;;4954776;28;21072;-49
2022/04/30 06:23:57;;;;;;;10.93;6.53;;;;;;;;;;4970035;28;20209;-49
2022/04/30 06:26:23;;;;;;;12.87;6.83;;;;;;;;;;4967267;28;20217;-49
2022/04/30 06:28:49;;;;;;;9.63;6.10;;;;;;;;;;4966307;28;20194;-49
2022/04/30 06:31:15;;;;;;;12.10;6.53;;;;;;;;;;4961774;28;20274;-49
2022/04/30 06:33:41;;;;;;;9.00;6.43;;;;;;;;;;4968416;28;20197;-49
2022/04/30 06:36:07;;;;;;;8.93;6.40;;;;;;;;;;4962729;28;20214;-49
2022/04/30 06:38:33;;;;;;;10.43;6.73;;;;;;;;;;4959800;28;20225;-49
2022/04/30 06:40:59;;;;;;;7.90;6.00;;;;;;;;;;4954152;28;20182;-48
2022/04/30 06:43:25;;;;;;;10.10;5.90;;;;;;;;;;4952630;28;20190;-49
2022/04/30 06:45:51;;;;;;;7.73;6.00;;;;;;;;;;4951744;28;20195;-48
2022/04/30 06:48:17;;;;;;;10.43;6.40;;;;;;;;;;4956564;28;20182;-49
2022/04/30 06:50:45;;;;;;;7.70;6.13;;;;;;;;;;4955316;28;20242;-49
2022/04/30 06:58:44;;;;;;;8.60;6.20;;;;;;;;;;4948052;28;20289;-50
2022/04/30 07:01:30;;;;;;;7.40;5.43;;;;;;;;;;4959182;28;20233;-50
2022/04/30 07:04:02;;;;;;;7.53;5.60;;;;;;;;;;4965741;28;20196;-50
2022/04/30 07:06:31;;;;;;;8.43;5.30;;;;;;;;;;4966407;28;20272;-49
2022/04/30 07:08:57;;;;;;;7.47;5.47;;;;;;;;;;4964094;28;20652;-50
2022/04/30 07:11:23;;;;;;;9.23;5.60;;;;;;;;;;4972014;28;20194;-49
2022/04/30 07:13:49;;;;;;;10.17;5.77;;;;;;;;;;4957781;28;20712;-50
2022/04/30 07:16:15;;;;;;;5.90;5.20;;;;;;;;;;4973320;28;20703;-49
2022/04/30 07:18:41;;;;;;;8.30;5.53;;;;;;;;;;4970051;28;20186;-50
2022/04/30 07:21:07;;;;;;;10.30;5.97;;;;;;;;;;4970505;28;20308;-50
2022/04/30 07:23:33;;;;;;;12.70;5.97;;;;;;;;;;4967826;28;20194;-50
2022/04/30 07:25:59;;;;;;;8.13;6.03;;;;;;;;;;4971702;28;20679;-50
2022/04/30 07:28:26;;;;;;;10.57;5.13;;;;;;;;;;4969962;28;20191;-50
2022/04/30 07:30:52;;;;;;;9.30;5.77;;;;;;;;;;4957701;28;20185;-49
2022/04/30 07:33:18;;;;;;;9.57;5.77;;;;;;;;;;4966109;28;21057;-50
2022/04/30 07:35:44;;;;;;;6.80;5.17;;;;;;;;;;4966498;28;20317;-49
2022/04/30 07:38:10;;;;;;;11.17;5.63;;;;;;;;;;4958134;28;20189;-50
2022/04/30 07:40:36;;;;;;;9.37;5.57;;;;;;;;;;4970288;28;20618;-49
2022/04/30 07:43:02;;;;;;;8.33;5.67;;;;;;;;;;4969953;28;20191;-50
2022/04/30 07:45:28;;;;;;;7.47;5.17;;;;;;;;;;4968111;28;20241;-49
2022/04/30 07:47:55;;;;;;;10.67;5.23;;;;;;;;;;4963274;28;20730;-50
2022/04/30 07:50:22;;;;;;;7.40;5.23;;;;;;;;;;4963513;28;20295;-50
2022/04/30 07:52:48;;;;;;;8.23;5.10;;;;;;;;;;4966342;28;20202;-50
2022/04/30 07:55:14;;;;;;;7.53;4.40;;;;;;;;;;4970604;28;20226;-51
2022/04/30 07:57:40;;;;;;;11.57;4.83;;;;;;;;;;4962389;28;20775;-50
2022/04/30 08:00:06;;;;;;;7.33;5.37;;;;;;;;;;4963014;28;20195;-50
2022/04/30 08:02:32;;;;;;;6.37;4.17;;;;;;;;;;4964697;28;21017;-50
2022/04/30 08:05:01;;;;;;;5.53;3.90;;;;;;;;;;4956819;28;20186;-49
2022/04/30 08:07:27;;;;;;;4.67;3.60;;;;;;;;;;4969117;28;20238;-49
2022/04/30 08:09:53;;;;;;;5.67;3.67;;;;;;;;;;4965798;28;20187;-50
2022/04/30 08:12:19;;;;;;;4.17;3.43;;;;;;;;;;4972497;28;20205;-50
2022/04/30 08:14:45;;;;;;;5.67;3.63;;;;;;;;;;4969119;28;20205;-50
2022/04/30 08:17:14;;;;;;;5.90;3.07;;;;;;;;;;4968137;28;20245;-50
2022/04/30 08:19:41;;;;;;;5.50;3.30;;;;;;;;;;4965824;28;20544;-50
2022/04/30 08:22:07;;;;;;;6.20;3.37;;;;;;;;;;4969843;28;20644;-50
2022/04/30 08:24:33;;;;;;;3.87;3.17;;;;;;;;;;4969001;28;20216;-49
2022/04/30 08:27:02;;;;;;;4.80;2.97;;;;;;;;;;4971938;28;20330;-50
2022/04/30 08:29:28;;;;;;;4.13;2.67;;;;;;;;;;4965849;28;20362;-50
2022/04/30 08:31:54;;;;;;;4.80;3.53;;;;;;;;;;4963224;28;20317;-50
2022/04/30 08:34:20;;;;;;;7.23;3.23;;;;;;;;;;4966194;28;20301;-50
2022/04/30 08:36:46;;;;;;;4.43;3.25;;;;;;;;;;4960316;28;20959;-50
2022/04/30 08:39:12;;;;;;;5.78;3.13;;;;;;;;;;4969936;28;20668;-50
2022/04/30 08:41:39;;;;;;;4.38;2.95;;;;;;;;;;4969458;28;20303;-50
2022/04/30 08:44:05;;;;;;;5.53;2.97;;;;;;;;;;4965516;28;20191;-50
2022/04/30 08:46:31;;;;;;;3.92;2.83;;;;;;;;;;4966899;28;20261;-51
2022/04/30 08:48:57;;;;;;;4.88;3.20;;;;;;;;;;4970325;28;20577;-50
2022/04/30 08:51:22;;;;;;;5.72;3.40;;;;;;;;;;4962960;28;20234;-51
2022/04/30 08:53:48;;;;;;;4.93;3.22;;;;;;;;;;4965494;28;20186;-50
2022/04/30 08:56:14;;;;;;;5.97;3.50;;;;;;;;;;4968551;28;20711;-50
2022/04/30 08:58:40;;;;;;;4.28;3.25;;;;;;;;;;4967793;28;21185;-49
2022/04/30 09:01:09;;;;;;;4.72;2.70;;;;;;;;;;4966315;28;20624;-50
2022/04/30 09:03:35;;;;;;;5.03;3.40;;;;;;;;;;4967666;28;20241;-50
2022/04/30 09:06:02;;;;;;;4.88;3.35;;;;;;;;;;4966443;28;20645;-50
2022/04/30 09:08:28;;;;;;;4.00;3.60;;;;;;;;;;4970304;28;20244;-50
2022/04/30 09:11:04;;;;;;;7.20;4.20;;;;;;;;;;4970764;28;20187;-51
2022/04/30 09:13:30;;;;;;;8.68;3.95;;;;;;;;;;4967523;28;20602;-51
2022/04/30 09:15:56;;;;;;;4.07;3.70;;;;;;;;;;4960390;28;20241;-50
2022/04/30 09:18:22;;;;;;;4.90;3.60;;;;;;;;;;4971039;28;20789;-50
2022/04/30 09:20:49;;;;;;;3.75;3.45;;;;;;;;;;4965805;28;20191;-51
2022/04/30 09:23:25;;;;;;;5.50;3.35;;;;;;;;;;4968576;28;20191;-50
2022/04/30 09:25:52;;;;;;;3.65;3.35;;;;;;;;;;4962198;28;20633;-50
2022/04/30 09:28:24;;;;;;;4.13;3.60;;;;;;;;;;4964860;28;20225;-51
2022/04/30 09:30:50;;;;;;;4.10;3.17;;;;;;;;;;4958289;28;20187;-51
2022/04/30 09:33:18;;;;;;;4.55;3.38;;;;;;;;;;4971052;28;20549;-51
2022/04/30 09:38:38;;;;;;;4.68;3.65;;;;;;;;;;4970366;28;20194;-51
2022/04/30 09:41:07;;;;;;;5.60;3.53;;;;;;;;;;4963938;28;21021;-51
2022/04/30 09:43:34;;;;;;;4.55;3.80;;;;;;;;;;4968691;28;20916;-50
2022/04/30 09:46:00;;;;;;;4.13;3.72;;;;;;;;;;4957799;28;20225;-50
2022/04/30 09:54:00;;;;;;;4.32;3.65;;;;;;;;;;4961767;28;20229;-50
2022/04/30 09:56:36;;;;;;;5.20;3.58;;;;;;;;;;4962503;28;20236;-50
2022/04/30 09:59:12;;;;;;;3.97;3.55;;;;;;;;;;4953145;28;20194;-50
2022/04/30 10:01:42;;;;;;;3.47;3.17;;;;;;;;;;4956505;28;20185;-50
2022/04/30 10:04:12;;;;;;;3.85;3.00;;;;;;;;;;4968690;28;20186;-51
2022/04/30 10:06:40;;;;;;;3.40;3.10;;;;;;;;;;4965580;28;20249;-50
2022/04/30 10:09:10;;;;;;;4.57;3.15;;;;;;;;;;4967507;28;20198;-50
2022/04/30 10:11:54;;;;;;;5.47;3.10;;;;;;;;;;4965894;28;20206;-50
2022/04/30 10:14:30;;;;;;;3.58;3.28;;;;;;;;;;4960739;28;20202;-50
2022/04/30 10:17:12;;;;;;;6.63;3.50;;;;;;;;;;4965222;28;20305;-51
2022/04/30 10:19:41;;;;;;;3.65;2.90;;;;;;;;;;4968374;28;20193;-51
2022/04/30 10:22:13;;;;;;;4.43;3.20;;;;;;;;;;4963532;28;20190;-51
2022/04/30 10:24:46;;;;;;;4.50;2.95;;;;;;;;;;4969905;28;20298;-51
2022/04/30 10:27:12;;;;;;;3.30;3.00;;;;;;;;;;4966573;28;20217;-51
2022/04/30 10:29:38;;;;;;;3.40;2.90;;;;;;;;;;4970698;28;20203;-51
2022/04/30 10:32:04;;;;;;;3.08;2.75;;;;;;;;;;4964179;28;20210;-50
2022/04/30 10:34:31;;;;;;;3.60;2.47;;;;;;;;;;4969894;28;20675;-51
2022/04/30 10:36:58;;;;;;;3.30;3.00;;;;;;;;;;4965062;28;20218;-52
2022/04/30 10:39:24;;;;;;;5.18;2.80;;;;;;;;;;4981135;28;20191;-51
2022/04/30 10:41:50;;;;;;;2.60;2.40;;;;;;;;;;4970176;28;20196;-51
2022/04/30 10:44:18;;;;;;;5.15;3.08;;;;;;;;;;4960267;28;20498;-51
2022/04/30 10:46:45;;;;;;;3.22;2.75;;;;;;;;;;4966141;28;20524;-51
2022/04/30 10:49:11;;;;;;;3.70;3.10;;;;;;;;;;4968281;28;20187;-52
2022/04/30 10:51:38;;;;;;;5.65;2.90;;;;;;;;;;4969766;28;20281;-52
2022/04/30 10:54:07;;;;;;;3.33;2.58;;;;;;;;;;4965334;28;20187;-51
2022/04/30 10:56:33;;;;;;;3.72;2.75;;;;;;;;;;4969649;28;20284;-49
2022/04/30 10:58:59;;;;;;;3.95;2.63;;;;;;;;;;4960564;28;20290;-51
2022/04/30 11:01:25;;;;;;;4.25;2.60;;;;;;;;;;4961103;28;20823;-50
2022/04/30 11:03:51;;;;;;;4.43;2.50;;;;;;;;;;4967191;28;20186;-51
2022/04/30 11:06:21;;;;;;;3.00;2.60;;;;;;;;;;4966858;28;20334;-50
2022/04/30 11:09:17;;;;;;;2.60;2.38;;;;;;;;;;4967833;28;20610;-51
2022/04/30 11:11:45;;;;;;;4.93;2.70;;;;;;;;;;4960318;28;20801;-49
2022/04/30 11:14:11;;;;;;;2.75;2.38;;;;;;;;;;4968151;28;20197;-48
2022/04/30 11:16:37;;;;;;;3.28;2.60;;;;;;;;;;4966636;28;20383;-51
2022/04/30 11:19:05;;;;;;;3.80;2.47;;;;;;;;;;4959873;28;20187;-51
2022/04/30 11:21:35;;;;;;;4.53;2.65;;;;;;;;;;4966032;28;20270;-50
2022/04/30 11:24:01;;;;;;;2.80;2.50;;;;;;;;;;4966032;28;20194;-51
2022/04/30 11:26:29;;;;;;;4.80;4.28;;;;;;;;;;4962913;28;20317;-54
2022/04/30 11:28:55;;;;;;;5.68;4.07;;;;;;;;;;4955522;28;20788;-53
2022/04/30 11:31:21;;;;;;;4.03;3.58;;;;;;;;;;4966603;28;20301;-54
2022/04/30 11:33:47;;;;;;;4.18;3.78;;;;;;;;;;4964035;28;20198;-54
2022/04/30 11:36:13;;;;;;;5.57;4.28;;;;;;;;;;4968110;28;20751;-53
2022/04/30 11:38:39;;;;;;;8.38;5.03;;;;;;;;;;4965289;28;20599;-53
2022/04/30 11:41:05;;;;;;;7.82;4.80;;;;;;;;;;4962647;28;20187;-53
2022/04/30 11:43:31;;;;;;;5.55;4.75;;;;;;;;;;4966973;28;20200;-53
2022/04/30 11:46:03;;;;;;;6.13;4.90;;;;;;;;;;4970752;28;20289;-54
2022/04/30 11:48:32;;;;;;;9.05;4.78;;;;;;;;;;4968608;28;20653;-52
2022/04/30 11:50:58;;;;;;;9.30;5.38;;;;;;;;;;4967921;28;20731;-54
2022/04/30 11:53:25;;;;;;;5.40;4.90;;;;;;;;;;4969468;28;20293;-53
2022/04/30 11:55:50;;;;;;;6.10;5.50;;;;;;;;;;4970177;28;20572;-53
2022/04/30 11:58:16;;;;;;;6.20;5.25;;;;;;;;;;4964179;28;20179;-54
2022/04/30 12:00:42;;;;;;;11.90;5.63;;;;;;;;;;4958304;28;20183;-53
2022/04/30 12:03:09;;;;;;;6.57;5.13;;;;;;;;;;4970041;28;20183;-53
2022/04/30 12:05:35;;;;;;;7.43;5.40;;;;;;;;;;4961749;28;20756;-53
2022/04/30 12:08:01;;;;;;;6.32;5.32;;;;;;;;;;4958375;28;20238;-52
2022/04/30 12:10:28;;;;;;;8.32;5.53;;;;;;;;;;4962600;28;20195;-52
2022/04/30 12:12:54;;;;;;;5.47;4.87;;;;;;;;;;4964526;28;20924;-53
2022/04/30 12:15:23;;;;;;;9.37;5.83;;;;;;;;;;4963573;28;20198;-53
2022/04/30 12:26:13;;;;;;;5.88;4.15;;;;;;;;;;4957153;28;20201;-52
2022/04/30 12:28:45;;;;;;;4.32;3.55;;;;;;;;;;4961928;28;20182;-52
2022/04/30 12:31:12;;;;;;;6.38;4.47;;;;;;;;;;4952883;28;21161;-53
2022/04/30 12:33:45;;;;;;;5.53;4.85;;;;;;;;;;4963868;28;20292;-52
2022/04/30 12:36:11;;;;;;;5.45;4.95;;;;;;;;;;4973540;28;20198;-52
2022/04/30 12:38:37;;;;;;;7.03;4.65;;;;;;;;;;4966762;28;20274;-53
2022/04/30 12:41:03;;;;;;;4.80;4.23;;;;;;;;;;4965274;28;20987;-53
2022/04/30 12:43:31;;;;;;;6.28;4.30;;;;;;;;;;4959980;28;20317;-51
2022/04/30 12:45:57;;;;;;;5.32;4.20;;;;;;;;;;4968644;28;20190;-51
2022/04/30 12:48:23;;;;;;;6.18;4.38;;;;;;;;;;4964804;28;20205;-52
2022/04/30 12:50:49;;;;;;;6.68;4.30;;;;;;;;;;4971464;28;20470;-52
2022/04/30 12:53:15;;;;;;;4.72;4.10;;;;;;;;;;4963968;28;20221;-51
2022/04/30 12:55:41;;;;;;;5.65;4.32;;;;;;;;;;4971333;28;20411;-52
2022/04/30 12:58:08;;;;;;;5.97;4.40;;;;;;;;;;4962306;28;20640;-51
2022/04/30 13:00:34;;;;;;;5.70;4.18;;;;;;;;;;4965578;28;20183;-51
2022/04/30 13:03:00;;;;;;;4.90;4.40;;;;;;;;;;4970054;28;20258;-51
2022/04/30 13:05:27;;;;;;;5.70;4.40;;;;;;;;;;4960556;28;20270;-51
2022/04/30 13:07:53;;;;;;;6.40;3.93;;;;;;;;;;4967072;28;20270;-51
2022/04/30 13:15:48;;;;;;;5.20;3.35;;;;;;;;;;4952585;28;20543;-50
2022/04/30 13:18:15;;;;;;;5.10;3.38;;;;;;;;;;4956694;28;20209;-50
2022/04/30 13:20:41;;;;;;;4.65;3.10;;;;;;;;;;4959767;28;20607;-50
2022/04/30 13:23:07;;;;;;;4.88;3.40;;;;;;;;;;4944648;28;20190;-50
2022/04/30 13:25:33;;;;;;;7.28;3.72;;;;;;;;;;4948114;28;20202;-50
2022/04/30 13:27:59;;;;;;;6.18;3.70;;;;;;;;;;4946901;28;20871;-50
2022/04/30 13:30:26;;;;;;;7.55;3.50;;;;;;;;;;4950828;28;20564;-49
2022/04/30 13:32:52;;;;;;;9.35;3.65;;;;;;;;;;4955071;28;20199;-50
2022/04/30 13:35:18;;;;;;;9.95;3.47;;;;;;;;;;4954584;28;20191;-49
2022/04/30 13:37:45;;;;;;;5.30;3.35;;;;;;;;;;4952679;28;20269;-50
2022/04/30 13:40:11;;;;;;;10.27;3.65;;;;;;;;;;4956672;28;20652;-51
2022/04/30 13:42:37;;;;;;;6.32;3.55;;;;;;;;;;4951879;28;20665;-50
2022/04/30 13:45:04;;;;;;;10.73;3.78;;;;;;;;;;4956494;28;20609;-50
2022/04/30 13:47:30;;;;;;;7.85;3.50;;;;;;;;;;4952741;28;20261;-50
2022/04/30 13:49:57;;;;;;;6.18;3.13;;;;;;;;;;4970306;28;20664;-50
2022/04/30 13:52:23;;;;;;;4.72;3.40;;;;;;;;;;4959228;28;20197;-49
2022/04/30 13:54:49;;;;;;;7.13;3.67;;;;;;;;;;4960992;28;20183;-50
2022/04/30 13:57:15;;;;;;;7.30;3.63;;;;;;;;;;4949532;28;20337;-50
2022/04/30 13:59:41;;;;;;;5.10;3.00;;;;;;;;;;4953299;28;20279;-50
2022/04/30 14:02:10;;;;;;;6.18;3.08;;;;;;;;;;4956342;28;20229;-50
2022/04/30 14:04:36;;;;;;;7.20;3.42;;;;;;;;;;4958651;28;20190;-50
2022/04/30 14:07:02;;;;;;;5.88;3.30;;;;;;;;;;4961770;28;20291;-50
2022/04/30 14:09:28;;;;;;;11.65;3.88;;;;;;;;;;4958417;28;20190;-50
2022/04/30 14:11:54;;;;;;;3.38;3.03;;;;;;;;;;4954396;28;20195;-50
2022/04/30 14:18:15;;;;;;;5.65;2.95;;;;;;;;;;4962251;28;20577;-49
2022/04/30 14:19:54;;;;;;;7.57;3.30;;;;;;;;;;4960410;28;20274;-51
2022/04/30 14:22:20;;;;;;;7.07;3.20;;;;;;;;;;4956952;28;20217;-51
2022/04/30 14:24:46;;;;;;;4.55;3.00;;;;;;;;;;4946942;28;20183;-50
2022/04/30 14:27:12;;;;;;;7.97;3.08;;;;;;;;;;4964729;28;20257;-50
2022/04/30 14:29:38;;;;;;;4.50;3.58;;;;;;;;;;4964649;28;20236;-51
2022/04/30 14:32:05;;;;;;;6.63;2.90;;;;;;;;;;4959595;28;20190;-52
2022/04/30 14:34:31;;;;;;;4.13;2.92;;;;;;;;;;4960773;28;20203;-52
2022/04/30 14:36:57;;;;;;;8.50;3.22;;;;;;;;;;4952555;28;20859;-55
2022/04/30 14:39:23;;;;;;;6.47;2.47;;;;;;;;;;4954117;28;20672;-52
2022/04/30 14:41:49;;;;;;;5.85;2.63;;;;;;;;;;4951132;28;20296;-52
2022/04/30 14:44:16;;;;;;;7.18;3.10;;;;;;;;;;4951635;28;20179;-51
2022/04/30 14:46:42;;;;;;;9.30;2.63;;;;;;;;;;4955722;28;20198;-51
2022/04/30 14:49:08;;;;;;;3.78;2.50;;;;;;;;;;4960952;28;20191;-51
2022/04/30 14:51:34;;;;;;;4.70;2.78;;;;;;;;;;4957538;28;20194;-52
2022/04/30 14:54:00;;;;;;;4.60;2.80;;;;;;;;;;4963529;28;20241;-51
2022/04/30 14:56:26;;;;;;;3.45;2.50;;;;;;;;;;4962852;28;20206;-51
2022/04/30 14:58:52;;;;;;;4.72;2.60;;;;;;;;;;4951985;28;20555;-51
2022/04/30 15:01:18;;;;;;;3.58;2.22;;;;;;;;;;4951145;28;20730;-51
2022/04/30 15:03:44;;;;;;;6.18;2.35;;;;;;;;;;4955549;28;20175;-51
2022/04/30 15:06:10;;;;;;;7.25;2.50;;;;;;;;;;4960706;28;20252;-51
2022/04/30 15:08:36;;;;;;;3.20;2.08;;;;;;;;;;4955941;28;20236;-51
2022/04/30 15:11:03;;;;;;;3.10;2.33;;;;;;;;;;4955410;28;20194;-50
2022/04/30 15:13:28;;;;;;;2.60;2.28;;;;;;;;;;4947199;28;20190;-50
2022/04/30 15:15:55;;;;;;;3.53;2.15;;;;;;;;;;4956955;28;20742;-50
2022/04/30 15:18:21;;;;;;;3.80;2.47;;;;;;;;;;4961594;28;20552;-50
2022/04/30 15:20:47;;;;;;;2.60;2.40;;;;;;;;;;4965302;28;20183;-51
2022/04/30 15:23:13;;;;;;;2.22;2.05;;;;;;;;;;4969668;28;20238;-50
2022/04/30 15:25:38;;;;;;;2.65;2.40;;;;;;;;;;4947519;28;20186;-50
2022/04/30 15:28:05;;;;;;;5.47;2.95;;;;;;;;;;4952170;28;20245;-55
2022/04/30 15:30:31;;;;;;;3.67;2.95;;;;;;;;;;4958739;28;20198;-55